createdAt,value
2019-02-25T00:01:41.626Z,101693.19
2019-02-25T00:04:11.083Z,101690.05
2019-02-25T00:06:38.925Z,101680.63
2019-02-25T00:09:08.559Z,101681.89
2019-02-25T00:11:37.136Z,101679.98
2019-02-25T00:14:04.945Z,101680.68
2019-02-25T00:16:33.348Z,101682.52
2019-02-25T00:19:01.213Z,101692.44
2019-02-25T00:21:29.014Z,101690.53
2019-02-25T00:23:56.799Z,101689.56
2019-02-25T00:26:24.609Z,101688.63
2019-02-25T00:28:52.486Z,101699.16
2019-02-25T00:31:20.275Z,101699.48
2019-02-25T00:33:48.060Z,101699.57
2019-02-25T00:36:15.894Z,101703.78
2019-02-25T00:38:43.654Z,101705.02
2019-02-25T00:41:21.500Z,101713.03
2019-02-25T00:44:08.739Z,101721.48
2019-02-25T00:46:36.865Z,101710.66
2019-02-25T00:49:04.686Z,101712.90
2019-02-25T00:51:51.991Z,101721.04
2019-02-25T00:54:19.809Z,101717.59
2019-02-25T00:56:47.665Z,101715.47
2019-02-25T00:59:15.452Z,101717.80
2019-02-25T01:01:43.380Z,101722.89
2019-02-25T01:04:11.162Z,101728.87
2019-02-25T01:06:39.012Z,101731.08
2019-02-25T01:09:06.976Z,101735.97
2019-02-25T01:11:34.758Z,101737.80
2019-02-25T01:14:02.864Z,101735.37
2019-02-25T01:16:30.676Z,101705.44
2019-02-25T01:18:58.501Z,101731.52
2019-02-25T01:21:26.296Z,101731.67
2019-02-25T01:23:54.071Z,101732.96
2019-02-25T01:26:21.860Z,101733.05
2019-02-25T01:28:49.685Z,101730.31
2019-02-25T01:31:17.444Z,101726.32
2019-02-25T01:33:45.569Z,101725.08
2019-02-25T01:36:13.357Z,101721.20
2019-02-25T01:38:41.197Z,101707.98
2019-02-25T01:41:09.038Z,101710.34
2019-02-25T01:43:36.887Z,101709.14
2019-02-25T01:46:04.700Z,101721.25
2019-02-25T01:48:32.519Z,101726.55
2019-02-25T01:51:00.715Z,101730.86
2019-02-25T01:53:28.485Z,101725.55
2019-02-25T01:55:56.322Z,101726.14
2019-02-25T01:58:24.095Z,101732.25
2019-02-25T02:00:56.964Z,101728.95
2019-02-25T02:03:24.907Z,101726.38
2019-02-25T02:05:52.782Z,101720.53
2019-02-25T02:08:23.001Z,101711.32
2019-02-25T02:11:51.738Z,101705.81
2019-02-25T02:14:19.649Z,101701.13
2019-02-25T02:16:47.377Z,101703.77
2019-02-25T02:19:15.181Z,101689.95
2019-02-25T02:21:43.055Z,101696.58
2019-02-25T02:24:10.894Z,101698.31
2019-02-25T02:26:38.712Z,101697.92
2019-02-25T02:29:06.457Z,101694.89
2019-02-25T02:31:34.350Z,101691.27
2019-02-25T02:34:02.164Z,101692.41
2019-02-25T02:36:30.042Z,101692.77
2019-02-25T02:38:57.827Z,101684.90
2019-02-25T02:41:25.625Z,101680.19
2019-02-25T02:43:53.407Z,101681.33
2019-02-25T02:47:25.593Z,101682.99
2019-02-25T02:49:53.471Z,101678.93
2019-02-25T02:52:21.277Z,101677.59
2019-02-25T02:54:49.065Z,101676.33
2019-02-25T02:57:36.342Z,101678.19
2019-02-25T03:00:15.973Z,101675.53
2019-02-25T03:02:43.914Z,101679.27
2019-02-25T03:05:14.658Z,101680.42
2019-02-25T03:07:42.435Z,101678.05
2019-02-25T03:10:11.758Z,101677.27
2019-02-25T03:12:39.634Z,101678.10
2019-02-25T03:15:11.528Z,101678.51
2019-02-25T03:17:39.372Z,101685.33
2019-02-25T03:20:12.590Z,101687.55
2019-02-25T03:22:40.422Z,101682.62
2019-02-25T03:25:11.167Z,101686.50
2019-02-25T03:27:38.976Z,101685.72
2019-02-25T03:30:14.590Z,101693.48
2019-02-25T03:32:42.389Z,101697.22
2019-02-25T03:35:10.180Z,101693.11
2019-02-25T03:37:37.931Z,101688.30
2019-02-25T03:40:17.849Z,101689.96
2019-02-25T03:42:45.634Z,101691.52
2019-02-25T03:45:15.351Z,101686.45
2019-02-25T03:48:02.581Z,101688.22
2019-02-25T03:50:35.376Z,101685.09
2019-02-25T03:53:03.291Z,101694.24
2019-02-25T03:55:31.139Z,101696.22
2019-02-25T03:57:58.931Z,101689.42
2019-02-25T04:00:27.047Z,101693.80
2019-02-25T04:02:54.889Z,101699.50
2019-02-25T04:05:22.701Z,101694.65
2019-02-25T04:07:50.638Z,101694.37
2019-02-25T04:10:18.735Z,101698.58
2019-02-25T04:12:46.504Z,101700.69
2019-02-25T04:15:17.713Z,101703.22
2019-02-25T04:17:45.468Z,101708.76
2019-02-25T04:20:14.219Z,101717.36
2019-02-25T04:22:42.036Z,101712.70
2019-02-25T04:25:09.948Z,101717.69
2019-02-25T04:27:37.790Z,101715.47
2019-02-25T04:30:13.361Z,101719.76
2019-02-25T04:32:41.184Z,101718.39
2019-02-25T04:35:10.215Z,101716.69
2019-02-25T04:37:38.034Z,101717.98
2019-02-25T04:40:15.841Z,101718.97
2019-02-25T04:42:43.653Z,101707.91
2019-02-25T04:45:14.287Z,101707.41
2019-02-25T04:47:49.370Z,101709.11
2019-02-25T04:50:17.174Z,101717.91
2019-02-25T04:52:44.968Z,101720.16
2019-02-25T04:55:12.892Z,101713.96
2019-02-25T04:57:40.681Z,101719.32
2019-02-25T05:00:14.597Z,101718.52
2019-02-25T05:02:49.544Z,101711.17
2019-02-25T05:05:17.399Z,101718.41
2019-02-25T05:07:45.176Z,101721.95
2019-02-25T05:10:14.380Z,101721.19
2019-02-25T05:12:47.384Z,101717.91
2019-02-25T05:15:16.412Z,101721.95
2019-02-25T05:17:44.197Z,101714.09
2019-02-25T05:20:23.490Z,101722.98
2019-02-25T05:22:51.231Z,101723.98
2019-02-25T05:25:19.041Z,101709.56
2019-02-25T05:27:46.838Z,101708.88
2019-02-25T05:30:15.364Z,101702.53
2019-02-25T05:32:43.287Z,101703.71
2019-02-25T05:35:11.256Z,101711.39
2019-02-25T05:37:39.037Z,101708.84
2019-02-25T05:40:11.897Z,101711.97
2019-02-25T05:42:42.816Z,101709.31
2019-02-25T05:45:11.511Z,101702.30
2019-02-25T05:47:42.414Z,101700.25
2019-02-25T05:50:12.452Z,101704.23
2019-02-25T05:52:40.249Z,101703.83
2019-02-25T05:55:27.517Z,101709.86
2019-02-25T05:57:55.327Z,101701.39
2019-02-25T06:00:25.348Z,101712.23
2019-02-25T06:02:53.124Z,101709.44
2019-02-25T06:05:21.785Z,101708.98
2019-02-25T06:07:49.609Z,101705.81
2019-02-25T06:10:17.724Z,101710.66
2019-02-25T06:12:45.622Z,101707.50
2019-02-25T06:15:14.859Z,101707.30
2019-02-25T06:17:42.711Z,101711.39
2019-02-25T06:20:11.598Z,101714.00
2019-02-25T06:22:39.356Z,101713.53
2019-02-25T06:25:07.436Z,101719.92
2019-02-25T06:27:35.245Z,101721.81
2019-02-25T06:30:08.084Z,101721.52
2019-02-25T06:32:35.894Z,101717.69
2019-02-25T06:35:05.067Z,101718.34
2019-02-25T06:37:32.839Z,101718.52
2019-02-25T06:40:00.695Z,101721.64
2019-02-25T06:42:28.489Z,101723.09
2019-02-25T06:44:56.351Z,101728.77
2019-02-25T06:47:24.155Z,101727.88
2019-02-25T06:49:52.013Z,101724.05
2019-02-25T06:52:20.125Z,101728.78
2019-02-25T06:54:48.051Z,101736.26
2019-02-25T06:57:15.869Z,101732.31
2019-02-25T06:59:43.695Z,101730.51
2019-02-25T07:02:11.526Z,101728.00
2019-02-25T07:05:04.914Z,101730.47
2019-02-25T07:07:49.808Z,101735.46
2019-02-25T07:10:45.903Z,101734.34
2019-02-25T07:13:36.124Z,101743.34
2019-02-25T07:16:23.550Z,101755.46
2019-02-25T07:19:03.686Z,101747.83
2019-02-25T07:21:57.016Z,101745.16
2019-02-25T07:24:52.839Z,101744.35
2019-02-25T07:27:38.457Z,101742.03
2019-02-25T07:30:17.639Z,101735.14
2019-02-25T07:32:55.901Z,101748.23
2019-02-25T07:35:42.031Z,101755.75
2019-02-25T07:38:39.778Z,101737.75
2019-02-25T07:41:35.458Z,101732.37
2019-02-25T07:44:22.844Z,101726.70
2019-02-25T07:47:19.550Z,101718.48
2019-02-25T07:50:15.748Z,101727.75
2019-02-25T07:52:49.390Z,101719.89
2019-02-25T07:55:39.823Z,101712.41
2019-02-25T07:58:22.192Z,101697.34
2019-02-25T08:01:00.892Z,101692.80
2019-02-25T08:03:34.010Z,101688.95
2019-02-25T08:06:20.228Z,101679.15
2019-02-25T08:09:05.785Z,101676.05
2019-02-25T08:12:02.454Z,101677.70
2019-02-25T08:14:49.848Z,101677.48
2019-02-25T08:17:27.223Z,101674.69
2019-02-25T08:20:09.643Z,101668.31
2019-02-25T08:23:06.220Z,101667.03
2019-02-25T08:25:52.158Z,101665.44
2019-02-25T08:28:45.645Z,101666.80
2019-02-25T08:31:36.377Z,101666.28
2019-02-25T08:34:22.369Z,101654.28
2019-02-25T08:37:59.277Z,101655.69
2019-02-25T08:41:18.314Z,101660.05
2019-02-25T08:43:58.840Z,101648.66
2019-02-25T08:46:34.490Z,101625.93
2019-02-25T08:49:06.547Z,101631.23
2019-02-25T08:51:34.408Z,101634.80
2019-02-25T08:54:02.234Z,101639.56
2019-02-25T08:56:30.133Z,101643.56
2019-02-25T08:58:57.959Z,101652.31
2019-02-25T09:01:39.737Z,101645.72
2019-02-25T09:04:07.582Z,101662.09
2019-02-25T09:06:35.347Z,101664.67
2019-02-25T09:09:04.986Z,101669.73
2019-02-25T09:11:48.152Z,101676.45
2019-02-25T09:14:15.965Z,101682.01
2019-02-25T09:16:43.774Z,101678.34
2019-02-25T09:19:11.568Z,101670.45
2019-02-25T09:21:39.396Z,101674.14
2019-02-25T09:24:07.202Z,101683.23
2019-02-25T09:26:35.017Z,101682.94
2019-02-25T09:29:03.653Z,101686.70
2019-02-25T09:31:31.451Z,101681.50
2019-02-25T09:33:59.278Z,101679.28
2019-02-25T09:36:27.046Z,101680.62
2019-02-25T09:38:56.664Z,101683.07
2019-02-25T09:41:29.858Z,101681.74
2019-02-25T09:43:54.355Z,101685.75
2019-02-25T09:46:23.097Z,101679.66
2019-02-25T09:48:50.951Z,101677.79
2019-02-25T09:51:18.872Z,101668.98
2019-02-25T09:53:46.643Z,101674.98
2019-02-25T09:56:15.318Z,101670.20
2019-02-25T09:58:43.180Z,101667.72
2019-02-25T10:01:25.101Z,101662.80
2019-02-25T10:03:52.912Z,101661.51
2019-02-25T10:06:20.770Z,101656.06
2019-02-25T10:08:48.568Z,101653.13
2019-02-25T10:11:16.422Z,101657.78
2019-02-25T10:13:44.214Z,101658.05
2019-02-25T10:16:12.087Z,101656.98
2019-02-25T10:18:39.848Z,101656.38
2019-02-25T10:21:07.684Z,101647.04
2019-02-25T10:23:35.445Z,101646.63
2019-02-25T10:26:03.259Z,101645.05
2019-02-25T10:28:31.036Z,101644.94
2019-02-25T10:30:58.882Z,101649.37
2019-02-25T10:33:26.702Z,101650.27
2019-02-25T10:35:54.533Z,101653.09
2019-02-25T10:38:22.321Z,101645.76
2019-02-25T10:40:55.699Z,101642.45
2019-02-25T10:43:23.539Z,101640.11
2019-02-25T10:45:51.313Z,101631.20
2019-02-25T10:48:19.856Z,101637.30
2019-02-25T10:50:59.267Z,101634.58
2019-02-25T10:53:27.114Z,101635.12
2019-02-25T10:56:33.213Z,101638.31
2019-02-25T10:59:02.290Z,101631.90
2019-02-25T11:01:30.834Z,101629.34
2019-02-25T11:03:58.689Z,101627.98
2019-02-25T11:06:27.386Z,101628.89
2019-02-25T11:09:02.596Z,101625.31
2019-02-25T11:11:33.430Z,101614.88
2019-02-25T11:14:02.936Z,101597.63
2019-02-25T11:16:30.945Z,101593.60
2019-02-25T11:19:00.830Z,101588.69
2019-02-25T11:21:28.571Z,101585.05
2019-02-25T11:23:56.389Z,101583.48
2019-02-25T11:26:26.117Z,101574.25
2019-02-25T11:28:53.919Z,101561.34
2019-02-25T11:31:24.542Z,101559.90
2019-02-25T11:33:53.344Z,101559.83
2019-02-25T11:36:22.083Z,101552.81
2019-02-25T11:38:49.969Z,101543.42
2019-02-25T11:41:22.850Z,101534.52
2019-02-25T11:43:52.836Z,101531.03
2019-02-25T11:46:20.354Z,101528.77
2019-02-25T11:48:48.155Z,101524.27
2019-02-25T11:51:16.199Z,101522.06
2019-02-25T11:53:44.024Z,101521.87
2019-02-25T11:56:12.271Z,101524.81
2019-02-25T11:58:40.041Z,101520.42
2019-02-25T12:01:26.816Z,101520.75
2019-02-25T12:03:55.428Z,101510.61
2019-02-25T12:06:23.244Z,101505.05
2019-02-25T12:08:51.062Z,101506.33
2019-02-25T12:11:18.890Z,101499.82
2019-02-25T12:13:46.751Z,101498.98
2019-02-25T12:16:14.588Z,101500.88
2019-02-25T12:18:42.398Z,101496.84
2019-02-25T12:21:10.239Z,101492.48
2019-02-25T12:23:38.065Z,101486.80
2019-02-25T12:26:05.852Z,101474.67
2019-02-25T12:28:33.715Z,101480.57
2019-02-25T12:31:01.460Z,101475.69
2019-02-25T12:33:29.315Z,101471.78
2019-02-25T12:35:57.092Z,101473.50
2019-02-25T12:38:24.903Z,101468.72
2019-02-25T12:41:07.972Z,101462.75
2019-02-25T12:43:35.765Z,101460.33
2019-02-25T12:46:03.557Z,101457.41
2019-02-25T12:48:31.734Z,101452.45
2019-02-25T12:50:59.564Z,101447.67
2019-02-25T12:53:27.384Z,101449.94
2019-02-25T12:55:55.232Z,101443.72
2019-02-25T12:58:23.060Z,101435.94
2019-02-25T13:00:50.909Z,101433.05
2019-02-25T13:03:18.748Z,101426.23
2019-02-25T13:05:46.542Z,101422.38
2019-02-25T13:08:14.336Z,101412.05
2019-02-25T13:10:42.170Z,101406.81
2019-02-25T13:13:09.977Z,101397.97
2019-02-25T13:15:37.847Z,101394.55
2019-02-25T13:18:05.639Z,101386.78
2019-02-25T13:20:33.541Z,101386.16
2019-02-25T13:23:01.368Z,101376.25
2019-02-25T13:25:29.272Z,101372.59
2019-02-25T13:27:58.746Z,101367.80
2019-02-25T13:30:27.044Z,101362.64
2019-02-25T13:32:54.902Z,101361.19
2019-02-25T13:35:22.627Z,101355.06
2019-02-25T13:37:50.742Z,101346.63
2019-02-25T13:40:18.675Z,101351.20
2019-02-25T13:42:46.516Z,101345.70
2019-02-25T13:45:14.434Z,101340.67
2019-02-25T13:47:42.330Z,101330.23
2019-02-25T13:50:15.583Z,101330.36
2019-02-25T13:52:48.218Z,101319.55
2019-02-25T13:55:13.669Z,101315.09
2019-02-25T13:57:41.558Z,101314.18
2019-02-25T14:00:17.203Z,101323.92
2019-02-25T14:02:45.627Z,101325.77
2019-02-25T14:05:13.528Z,101313.28
2019-02-25T14:07:41.385Z,101318.17
2019-02-25T14:10:10.049Z,101327.39
2019-02-25T14:12:38.047Z,101319.70
2019-02-25T14:15:06.759Z,101309.45
2019-02-25T14:17:34.791Z,101310.28
2019-02-25T14:20:12.005Z,101299.48
2019-02-25T14:22:39.832Z,101303.42
2019-02-25T14:25:12.417Z,101294.33
2019-02-25T14:27:40.431Z,101293.88
2019-02-25T14:30:13.137Z,101293.67
2019-02-25T14:32:40.974Z,101293.21
2019-02-25T14:35:08.798Z,101288.14
2019-02-25T14:37:36.584Z,101290.23
2019-02-25T14:40:06.045Z,101291.13
2019-02-25T14:42:36.341Z,101286.12
2019-02-25T14:45:07.237Z,101292.34
2019-02-25T14:47:37.014Z,101293.38
2019-02-25T14:50:05.724Z,101278.96
2019-02-25T14:52:33.595Z,101286.28
2019-02-25T14:55:04.121Z,101289.33
2019-02-25T14:57:32.859Z,101294.35
2019-02-25T15:00:00.820Z,101285.91
2019-02-25T15:02:28.652Z,101278.41
2019-02-25T15:04:56.459Z,101274.34
2019-02-25T15:07:24.282Z,101268.38
2019-02-25T15:09:52.117Z,101271.45
2019-02-25T15:12:20.725Z,101277.05
2019-02-25T15:14:48.875Z,101270.41
2019-02-25T15:17:16.598Z,101281.07
2019-02-25T15:19:44.450Z,101275.49
2019-02-25T15:22:12.290Z,101272.75
2019-02-25T15:24:40.088Z,101277.66
2019-02-25T15:27:09.298Z,101271.70
2019-02-25T15:29:39.636Z,101279.59
2019-02-25T15:32:07.441Z,101289.41
2019-02-25T15:34:35.231Z,101284.62
2019-02-25T15:37:04.686Z,101284.36
2019-02-25T15:39:32.753Z,101283.05
2019-02-25T15:42:03.731Z,101281.19
2019-02-25T15:44:31.617Z,101282.48
2019-02-25T15:47:04.233Z,101278.08
2019-02-25T15:49:32.259Z,101276.08
2019-02-25T15:52:02.885Z,101278.86
2019-02-25T15:54:32.749Z,101278.03
2019-02-25T15:57:03.453Z,101275.05
2019-02-25T15:59:32.236Z,101270.91
2019-02-25T16:02:00.293Z,101267.64
2019-02-25T16:04:31.600Z,101272.45
2019-02-25T16:06:59.583Z,101273.87
2019-02-25T16:09:29.359Z,101282.73
2019-02-25T16:11:58.972Z,101297.47
2019-02-25T16:14:27.724Z,101299.55
2019-02-25T16:16:57.307Z,101299.41
2019-02-25T16:19:34.887Z,101301.23
2019-02-25T16:21:56.797Z,101301.17
2019-02-25T16:24:24.627Z,101304.28
2019-02-25T16:26:53.829Z,101310.63
2019-02-25T16:29:22.147Z,101311.64
2019-02-25T16:32:01.941Z,101311.92
2019-02-25T16:34:29.994Z,101318.34
2019-02-25T16:36:58.241Z,101315.91
2019-02-25T16:39:27.536Z,101325.94
2019-02-25T16:41:55.363Z,101327.45
2019-02-25T16:44:23.122Z,101331.45
2019-02-25T16:46:50.987Z,101329.10
2019-02-25T16:49:18.851Z,101332.30
2019-02-25T16:51:46.696Z,101335.77
2019-02-25T16:54:18.938Z,101341.19
2019-02-25T16:56:45.221Z,101341.84
2019-02-25T16:59:13.993Z,101338.34
2019-02-25T17:01:42.764Z,101333.17
2019-02-25T17:04:12.228Z,101334.61
2019-02-25T17:06:40.330Z,101338.90
2019-02-25T17:09:09.809Z,101344.67
2019-02-25T17:11:40.123Z,101345.22
2019-02-25T17:14:09.153Z,101347.06
2019-02-25T17:16:36.889Z,101346.11
2019-02-25T17:19:04.744Z,101350.53
2019-02-25T17:21:32.691Z,101353.83
2019-02-25T17:24:01.341Z,101354.91
2019-02-25T17:26:30.214Z,101349.23
2019-02-25T17:28:58.020Z,101351.17
2019-02-25T17:31:25.920Z,101351.32
2019-02-25T17:33:55.667Z,101358.32
2019-02-25T17:36:23.410Z,101361.36
2019-02-25T17:38:51.971Z,101364.02
2019-02-25T17:41:20.031Z,101369.28
2019-02-25T17:43:47.926Z,101375.27
2019-02-25T17:46:15.750Z,101383.09
2019-02-25T17:48:45.912Z,101379.33
2019-02-25T17:51:19.156Z,101380.34
2019-02-25T17:53:49.915Z,101383.25
2019-02-25T17:56:18.502Z,101384.66
2019-02-25T17:58:47.651Z,101390.11
2019-02-25T18:01:16.952Z,101387.95
2019-02-25T18:03:46.084Z,101389.33
2019-02-25T18:06:15.110Z,101385.03
2019-02-25T18:08:42.904Z,101388.38
2019-02-25T18:11:11.011Z,101391.69
2019-02-25T18:13:38.794Z,101388.80
2019-02-25T18:16:08.561Z,101392.98
2019-02-25T18:18:39.210Z,101395.19
2019-02-25T18:21:08.220Z,101398.78
2019-02-25T18:23:36.330Z,101388.03
2019-02-25T18:26:05.211Z,101390.41
2019-02-25T18:28:34.894Z,101397.90
2019-02-25T18:31:10.825Z,101401.55
2019-02-25T18:33:38.086Z,101396.91
2019-02-25T18:36:07.148Z,101397.91
2019-02-25T18:38:35.990Z,101395.09
2019-02-25T18:41:04.751Z,101399.95
2019-02-25T18:43:34.064Z,101399.46
2019-02-25T18:46:03.350Z,101399.36
2019-02-25T18:48:32.098Z,101395.86
2019-02-25T18:51:01.287Z,101395.81
2019-02-25T18:53:29.730Z,101397.38
2019-02-25T18:55:57.529Z,101397.95
2019-02-25T18:58:25.334Z,101399.52
2019-02-25T19:00:57.055Z,101399.30
2019-02-25T19:03:26.571Z,101392.20
2019-02-25T19:05:55.382Z,101392.34
2019-02-25T19:08:26.331Z,101399.21
2019-02-25T19:10:54.957Z,101400.80
2019-02-25T19:13:25.382Z,101402.52
2019-02-25T19:15:54.877Z,101404.25
2019-02-25T19:18:24.064Z,101406.20
2019-02-25T19:20:52.549Z,101411.27
2019-02-25T19:23:20.546Z,101414.55
2019-02-25T19:25:48.357Z,101417.11
2019-02-25T19:28:18.702Z,101418.95
2019-02-25T19:30:46.168Z,101418.85
2019-02-25T19:33:19.355Z,101421.09
2019-02-25T19:35:44.306Z,101425.17
2019-02-25T19:38:14.678Z,101422.88
2019-02-25T19:40:43.213Z,101428.48
2019-02-25T19:43:12.113Z,101428.58
2019-02-25T19:45:40.813Z,101424.34
2019-02-25T19:48:10.299Z,101421.42
2019-02-25T19:50:49.830Z,101425.77
2019-02-25T19:53:11.824Z,101426.56
2019-02-25T19:55:38.672Z,101426.36
2019-02-25T19:58:07.486Z,101427.92
2019-02-25T20:00:35.911Z,101428.91
2019-02-25T20:03:06.087Z,101425.90
2019-02-25T20:05:33.767Z,101423.17
2019-02-25T20:08:01.627Z,101418.98
2019-02-25T20:10:30.700Z,101417.27
2019-02-25T20:12:58.731Z,101417.22
2019-02-25T20:15:26.591Z,101419.43
2019-02-25T20:17:55.238Z,101422.94
2019-02-25T20:20:26.056Z,101424.94
2019-02-25T20:22:53.934Z,101424.97
2019-02-25T20:25:24.505Z,101418.50
2019-02-25T20:27:52.858Z,101414.21
2019-02-25T20:30:23.500Z,101414.34
2019-02-25T20:32:53.012Z,101410.88
2019-02-25T20:35:22.202Z,101407.73
2019-02-25T20:37:52.986Z,101411.67
2019-02-25T20:40:25.516Z,101403.66
2019-02-25T20:42:53.476Z,101406.09
2019-02-25T20:45:23.669Z,101395.56
2019-02-25T20:47:52.249Z,101390.73
2019-02-25T20:50:26.940Z,101384.12
2019-02-25T20:52:56.015Z,101390.91
2019-02-25T20:55:24.996Z,101392.80
2019-02-25T20:57:54.206Z,101391.81
2019-02-25T21:00:42.000Z,101390.17
2019-02-25T21:03:14.362Z,101389.84
2019-02-25T21:05:41.792Z,101396.13
2019-02-25T21:08:09.605Z,101399.55
2019-02-25T21:10:37.506Z,101395.64
2019-02-25T21:13:05.376Z,101392.28
2019-02-25T21:15:35.457Z,101404.84
2019-02-25T21:18:06.906Z,101412.59
2019-02-25T21:20:37.151Z,101413.65
2019-02-25T21:23:06.013Z,101412.75
2019-02-25T21:25:44.178Z,101419.71
2019-02-25T21:28:12.560Z,101434.28
2019-02-25T21:31:07.141Z,101428.36
2019-02-25T21:33:34.728Z,101431.36
2019-02-25T21:36:02.657Z,101433.11
2019-02-25T21:38:30.466Z,101424.28
2019-02-25T21:41:00.975Z,101425.11
2019-02-25T21:43:29.164Z,101415.61
2019-02-25T21:45:59.341Z,101414.48
2019-02-25T21:48:27.937Z,101400.70
2019-02-25T21:51:04.564Z,101389.80
2019-02-25T21:53:31.916Z,101391.70
2019-02-25T21:56:02.946Z,101394.89
2019-02-25T21:58:29.466Z,101390.19
2019-02-25T22:00:57.346Z,101394.06
2019-02-25T22:03:25.175Z,101390.08
2019-02-25T22:05:55.407Z,101392.91
2019-02-25T22:08:24.366Z,101396.25
2019-02-25T22:11:01.257Z,101403.18
2019-02-25T22:13:27.746Z,101399.09
2019-02-25T22:15:57.403Z,101394.50
2019-02-25T22:18:26.151Z,101387.55
2019-02-25T22:21:00.078Z,101388.16
2019-02-25T22:23:28.345Z,101393.83
2019-02-25T22:25:57.638Z,101398.89
2019-02-25T22:28:44.916Z,101399.91
2019-02-25T22:31:22.257Z,101397.52
2019-02-25T22:33:50.082Z,101395.25
2019-02-25T22:36:17.868Z,101396.91
2019-02-25T22:38:45.700Z,101398.70
2019-02-25T22:41:20.467Z,101396.02
2019-02-25T22:43:48.353Z,101407.41
2019-02-25T22:46:16.101Z,101415.65
2019-02-25T22:48:45.495Z,101420.28
2019-02-25T22:51:13.601Z,101417.52
2019-02-25T22:53:41.388Z,101418.59
2019-02-25T22:56:13.250Z,101422.94
2019-02-25T22:58:40.666Z,101426.20
2019-02-25T23:01:17.602Z,101426.95
2019-02-25T23:03:44.960Z,101422.89
2019-02-25T23:06:13.469Z,101430.22
2019-02-25T23:08:44.063Z,101431.45
2019-02-25T23:11:14.157Z,101430.25
2019-02-25T23:13:42.785Z,101427.72
2019-02-25T23:16:10.933Z,101419.97
2019-02-25T23:18:38.753Z,101419.67
2019-02-25T23:21:06.544Z,101420.75
2019-02-25T23:23:35.592Z,101424.61
2019-02-25T23:26:04.037Z,101416.50
2019-02-25T23:28:31.823Z,101423.95
2019-02-25T23:30:59.624Z,101423.11
2019-02-25T23:33:27.383Z,101423.11
2019-02-25T23:35:56.048Z,101431.39
2019-02-25T23:38:23.986Z,101432.11
2019-02-25T23:40:51.761Z,101428.33
2019-02-25T23:43:19.598Z,101426.87
2019-02-25T23:45:47.438Z,101424.02
2019-02-25T23:48:15.277Z,101420.68
2019-02-25T23:50:43.068Z,101419.56
2019-02-25T23:53:10.899Z,101421.34
2019-02-25T23:55:38.707Z,101416.12
2019-02-25T23:58:10.244Z,101410.23
